Norse Mersey — IBEN — position and weather

sailwx.info

Track history (hours):
 
Tides and Currents Weather Stations Pressure Air Temp Water Temp Dewpoint Dewpoint Depression Visibility Wind Speed Wind Dir Waves Ship Positions

Norse Mersey

Operator: Norse Merchant Ferries

Last reported at 2015-Aug-01 02:15 UTC. Time now 2015-Aug-01 03:30 UTC.
Position N 38°51' E 015°26'.

Length 175 m; draft 5.6 m.

Type: Passenger vessel. MMSI: 247026000.

Date/timePositionNaut miles runAvg speedWind from/ knotsBaromVisibWave heightAir tempDewpointWater temp
2015-Aug-01 02:15N 38°51' E 015°26'1115.2
2015-Aug-01 01:33N 38°41' E 015°31'1515.2
2015-Aug-01 00:33N 38°27' E 015°39'1312.6
2015-Jul-31 23:33N 38°15' E 015°39'1414.3
2015-Jul-31 22:33N 38°01' E 015°34'1515.1
2015-Jul-31 21:33N 37°48' E 015°25'5 0.4
2015-Jul-31 09:21N 37°52' E 015°25'1215.3
2015-Jul-31 08:33N 38°03' E 015°32'1414.4
2015-Jul-31 07:34N 38°16' E 015°40'1615.5
2015-Jul-31 06:31N 38°31' E 015°34'4615.5
2015-Jul-31 03:32N 39°15' E 015°14'7815.2
2015-Jul-30 22:25N 40°29' E 014°44'110 5.2
2015-Jul-30 01:18N 38°45' E 015°29'1215.1
2015-Jul-30 00:32N 38°34' E 015°35'1515.1
2015-Jul-29 23:33N 38°20' E 015°41'1212.2
2015-Jul-29 22:34N 38°09' E 015°36'1514.9
2015-Jul-29 21:33N 37°55' E 015°30'7 0.6
2015-Jul-29 09:22N 37°50' E 015°24'1215.4
2015-Jul-29 08:33N 38°01' E 015°30'1515.2
2015-Jul-29 07:33N 38°15' E 015°38'1514.4
2015-Jul-29 06:30N 38°30' E 015°35'1515.4
2015-Jul-29 05:30N 38°44' E 015°28'10615.2
2015-Jul-28 22:33N 40°25' E 014°44'6 0.6
2015-Jul-28 12:16N 40°31' E 014°44'10715.4
2015-Jul-28 05:19N 38°49' E 015°28'1314.9
2015-Jul-28 04:27N 38°37' E 015°33'1415.2
2015-Jul-28 03:32N 38°24' E 015°40'1312.8
2015-Jul-28 02:33N 38°12' E 015°37'1514.8
2015-Jul-28 01:33N 37°58' E 015°32'50 5.5
2015-Jul-27 16:25N 37°08' E 015°23'1315.2
2015-Jul-27 15:33N 36°55' E 015°23'1616.2
2015-Jul-27 14:33N 36°40' E 015°14'1615.8
2015-Jul-27 13:33N 36°27' E 015°04'1615.7
2015-Jul-27 12:33N 36°15' E 014°52'1515.5
2015-Jul-27 11:33N 36°02' E 014°40'1211.7
2015-Jul-27 10:31N 35°53' E 014°30'2 0.2
2015-Jul-27 01:33N 35°54' E 014°32'1414.0
2015-Jul-27 00:34N 36°05' E 014°42'1615.0
2015-Jul-26 23:30N 36°18' E 014°54'2915.1
2015-Jul-26 21:34N 36°42' E 015°15'1715.6
2015-Jul-26 20:29N 36°57' E 015°24'49 4.9
2015-Jul-26 10:30N 37°46' E 015°21'1415.2
2015-Jul-26 09:33N 37°58' E 015°29'1615.9
2015-Jul-26 08:33N 38°13' E 015°36'1313.2
2015-Jul-26 07:33N 38°27' E 015°37'1515.2
2015-Jul-26 06:33N 38°41' E 015°30'10515.0
2015-Jul-25 23:33N 40°20' E 014°45'6 0.5
2015-Jul-25 11:29N 40°26' E 014°44'10014.2
2015-Jul-25 04:28N 38°52' E 015°26'1414.3
2015-Jul-25 03:29N 38°38' E 015°32'1414.7
2015-Jul-25 02:33N 38°26' E 015°39'1212.4
2015-Jul-25 01:34N 38°14' E 015°37'1515.5
2015-Jul-25 00:34N 37°58' E 015°33'17 1.3
2015-Jul-24 11:32N 37°45' E 015°21'1515.3
2015-Jul-24 10:33N 37°59' E 015°29'1515.3
2015-Jul-24 09:33N 38°13' E 015°36'1313.0
2015-Jul-24 08:33N 38°26' E 015°37'1815.6
2015-Jul-24 07:25N 38°42' E 015°30'10515.2
2015-Jul-24 00:31N 40°21' E 014°45'11 0.9
2015-Jul-23 13:07N 40°32' E 014°44'10715.3
2015-Jul-23 06:08N 38°50' E 015°27'915.2
2015-Jul-23 05:33N 38°42' E 015°30'1615.2
2015-Jul-23 04:30N 38°27' E 015°38'1313.3
2015-Jul-23 03:33N 38°15' E 015°39'1413.9
2015-Jul-23 02:33N 38°01' E 015°35'18 1.3
2015-Jul-22 12:33N 37°46' E 015°21'1515.5
2015-Jul-22 11:33N 38°00' E 015°30'1515.2
2015-Jul-22 10:34N 38°14' E 015°36'1312.1
2015-Jul-22 09:31N 38°27' E 015°37'1414.3
2015-Jul-22 08:33N 38°40' E 015°30'  
Track history (hours):
 
Tides and Currents Weather Stations Pressure Air Temp Water Temp Dewpoint Dewpoint Depression Visibility Wind Speed Wind Dir Waves Ship Positions

Norse Mersey

Operator: Norse Merchant Ferries

Last reported at 2015-Aug-01 02:15 UTC. Time now 2015-Aug-01 03:30 UTC.
Position N 38°51' E 015°26'.

Length 175 m; draft 5.6 m.

Type: Passenger vessel. MMSI: 247026000.

Date/timePositionNaut miles runAvg speedWind from/ knotsBaromVisibWave heightAir tempDewpointWater temp
2015-Aug-01 02:15N 38°51' E 015°26'1115.2
2015-Aug-01 01:33N 38°41' E 015°31'1515.2
2015-Aug-01 00:33N 38°27' E 015°39'1312.6
2015-Jul-31 23:33N 38°15' E 015°39'1414.3
2015-Jul-31 22:33N 38°01' E 015°34'1515.1
2015-Jul-31 21:33N 37°48' E 015°25'5 0.4
2015-Jul-31 09:21N 37°52' E 015°25'1215.3
2015-Jul-31 08:33N 38°03' E 015°32'1414.4
2015-Jul-31 07:34N 38°16' E 015°40'1615.5
2015-Jul-31 06:31N 38°31' E 015°34'4615.5
2015-Jul-31 03:32N 39°15' E 015°14'7815.2
2015-Jul-30 22:25N 40°29' E 014°44'110 5.2
2015-Jul-30 01:18N 38°45' E 015°29'1215.1
2015-Jul-30 00:32N 38°34' E 015°35'1515.1
2015-Jul-29 23:33N 38°20' E 015°41'1212.2
2015-Jul-29 22:34N 38°09' E 015°36'1514.9
2015-Jul-29 21:33N 37°55' E 015°30'7 0.6
2015-Jul-29 09:22N 37°50' E 015°24'1215.4
2015-Jul-29 08:33N 38°01' E 015°30'1515.2
2015-Jul-29 07:33N 38°15' E 015°38'1514.4
2015-Jul-29 06:30N 38°30' E 015°35'1515.4
2015-Jul-29 05:30N 38°44' E 015°28'10615.2
2015-Jul-28 22:33N 40°25' E 014°44'6 0.6
2015-Jul-28 12:16N 40°31' E 014°44'10715.4
2015-Jul-28 05:19N 38°49' E 015°28'1314.9
2015-Jul-28 04:27N 38°37' E 015°33'1415.2
2015-Jul-28 03:32N 38°24' E 015°40'1312.8
2015-Jul-28 02:33N 38°12' E 015°37'1514.8
2015-Jul-28 01:33N 37°58' E 015°32'50 5.5
2015-Jul-27 16:25N 37°08' E 015°23'1315.2
2015-Jul-27 15:33N 36°55' E 015°23'1616.2
2015-Jul-27 14:33N 36°40' E 015°14'1615.8
2015-Jul-27 13:33N 36°27' E 015°04'1615.7
2015-Jul-27 12:33N 36°15' E 014°52'1515.5
2015-Jul-27 11:33N 36°02' E 014°40'1211.7
2015-Jul-27 10:31N 35°53' E 014°30'2 0.2
2015-Jul-27 01:33N 35°54' E 014°32'1414.0
2015-Jul-27 00:34N 36°05' E 014°42'1615.0
2015-Jul-26 23:30N 36°18' E 014°54'2915.1
2015-Jul-26 21:34N 36°42' E 015°15'1715.6
2015-Jul-26 20:29N 36°57' E 015°24'49 4.9
2015-Jul-26 10:30N 37°46' E 015°21'1415.2
2015-Jul-26 09:33N 37°58' E 015°29'1615.9
2015-Jul-26 08:33N 38°13' E 015°36'1313.2
2015-Jul-26 07:33N 38°27' E 015°37'1515.2
2015-Jul-26 06:33N 38°41' E 015°30'10515.0
2015-Jul-25 23:33N 40°20' E 014°45'6 0.5
2015-Jul-25 11:29N 40°26' E 014°44'10014.2
2015-Jul-25 04:28N 38°52' E 015°26'1414.3
2015-Jul-25 03:29N 38°38' E 015°32'1414.7
2015-Jul-25 02:33N 38°26' E 015°39'1212.4
2015-Jul-25 01:34N 38°14' E 015°37'1515.5
2015-Jul-25 00:34N 37°58' E 015°33'17 1.3
2015-Jul-24 11:32N 37°45' E 015°21'1515.3
2015-Jul-24 10:33N 37°59' E 015°29'1515.3
2015-Jul-24 09:33N 38°13' E 015°36'1313.0
2015-Jul-24 08:33N 38°26' E 015°37'1815.6
2015-Jul-24 07:25N 38°42' E 015°30'10515.2
2015-Jul-24 00:31N 40°21' E 014°45'11 0.9
2015-Jul-23 13:07N 40°32' E 014°44'10715.3
2015-Jul-23 06:08N 38°50' E 015°27'915.2
2015-Jul-23 05:33N 38°42' E 015°30'1615.2
2015-Jul-23 04:30N 38°27' E 015°38'1313.3
2015-Jul-23 03:33N 38°15' E 015°39'1413.9
2015-Jul-23 02:33N 38°01' E 015°35'18 1.3
2015-Jul-22 12:33N 37°46' E 015°21'1515.5
2015-Jul-22 11:33N 38°00' E 015°30'1515.2
2015-Jul-22 10:34N 38°14' E 015°36'1312.1
2015-Jul-22 09:31N 38°27' E 015°37'1414.3
2015-Jul-22 08:33N 38°40' E 015°30'  

Dump ship's entire track history